createdAt,value
2023-05-05T00:00:37.837Z,9.75
2023-05-05T00:03:41.790Z,8.45
2023-05-05T00:06:44.840Z,8.67
2023-05-05T00:09:47.586Z,7.82
2023-05-05T00:12:50.461Z,7.55
2023-05-05T00:15:53.857Z,7.55
2023-05-05T00:18:56.600Z,6.60
2023-05-05T00:21:59.239Z,8.20
2023-05-05T00:25:01.951Z,8.57
2023-05-05T00:28:04.854Z,7.40
2023-05-05T00:31:07.620Z,8.57
2023-05-05T00:34:11.174Z,9.70
2023-05-05T00:37:14.829Z,7.73
2023-05-05T00:40:18.787Z,7.85
2023-05-05T00:43:21.472Z,7.30
2023-05-05T00:46:26.916Z,8.38
2023-05-05T00:49:30.078Z,7.72
2023-05-05T00:52:32.927Z,7.33
2023-05-05T00:55:36.689Z,7.10
2023-05-05T00:58:43.270Z,7.50
2023-05-05T01:01:46.786Z,8.27
2023-05-05T01:04:49.648Z,7.60
2023-05-05T01:08:20.490Z,7.87
2023-05-05T01:11:35.727Z,7.22
2023-05-05T01:14:47.284Z,7.60
2023-05-05T01:17:57.372Z,7.68
2023-05-05T01:21:14.600Z,6.32
2023-05-05T01:24:54.506Z,8.33
2023-05-05T01:28:53.675Z,6.72
2023-05-05T01:32:08.029Z,7.80
2023-05-05T01:35:17.139Z,7.90
2023-05-05T01:38:23.231Z,8.35
2023-05-05T01:41:31.002Z,7.27
2023-05-05T01:44:37.140Z,8.45
2023-05-05T01:47:41.512Z,7.05
2023-05-05T01:50:46.955Z,7.68
2023-05-05T01:53:52.680Z,6.65
2023-05-05T01:56:57.462Z,6.80
2023-05-05T02:00:01.942Z,7.68
2023-05-05T02:03:06.696Z,6.82
2023-05-05T02:06:11.433Z,6.68
2023-05-05T02:09:15.318Z,7.28
2023-05-05T02:12:20.079Z,6.53
2023-05-05T02:15:24.332Z,6.78
2023-05-05T02:18:28.547Z,7.43
2023-05-05T02:21:32.017Z,7.65
2023-05-05T02:24:34.951Z,7.03
2023-05-05T02:27:41.910Z,7.33
2023-05-05T02:30:46.360Z,6.82
2023-05-05T02:33:53.599Z,8.48
2023-05-05T02:37:03.439Z,7.00
2023-05-05T02:40:11.322Z,6.88
2023-05-05T02:43:18.368Z,7.00
2023-05-05T02:46:22.252Z,6.55
2023-05-05T02:49:25.107Z,7.80
2023-05-05T02:52:33.621Z,7.65
2023-05-05T02:55:54.979Z,6.28
2023-05-05T02:59:21.988Z,6.83
2023-05-05T03:02:32.365Z,6.72
2023-05-05T03:05:46.014Z,6.25
2023-05-05T03:08:48.737Z,7.85
2023-05-05T03:12:02.108Z,6.93
2023-05-05T03:15:09.420Z,6.77
2023-05-05T03:18:15.682Z,6.63
2023-05-05T03:21:22.588Z,8.50
2023-05-05T03:24:25.530Z,6.82
2023-05-05T03:27:35.988Z,6.32
2023-05-05T03:30:39.391Z,8.57
2023-05-05T03:33:42.316Z,6.53
2023-05-05T03:36:45.731Z,6.22
2023-05-05T03:39:50.838Z,7.15
2023-05-05T03:42:53.805Z,7.63
2023-05-05T03:45:56.556Z,7.23
2023-05-05T03:48:59.280Z,6.45
2023-05-05T03:52:03.178Z,5.88
2023-05-05T03:55:07.007Z,6.75
2023-05-05T03:58:09.913Z,6.07
2023-05-05T04:01:12.855Z,5.67
2023-05-05T04:04:16.592Z,6.40
2023-05-05T04:07:19.410Z,6.40
2023-05-05T04:10:22.055Z,6.25
2023-05-05T04:13:24.879Z,6.25
2023-05-05T04:16:27.694Z,6.20
2023-05-05T04:19:34.333Z,6.10
2023-05-05T04:22:38.752Z,6.80
2023-05-05T04:25:41.494Z,6.05
2023-05-05T04:28:45.520Z,6.43
2023-05-05T04:31:48.463Z,6.80
2023-05-05T04:34:52.013Z,5.85
2023-05-05T04:37:54.933Z,6.97
2023-05-05T04:40:57.895Z,6.18
2023-05-05T04:44:00.691Z,6.90
2023-05-05T04:47:04.264Z,6.10
2023-05-05T04:50:08.081Z,5.80
2023-05-05T04:53:11.289Z,5.78
2023-05-05T04:56:14.537Z,6.22
2023-05-05T04:59:17.643Z,6.40
2023-05-05T05:02:20.815Z,6.67
2023-05-05T05:05:25.414Z,6.53
2023-05-05T05:08:28.133Z,6.00
2023-05-05T05:11:32.496Z,7.25
2023-05-05T05:14:40.123Z,6.00
2023-05-05T05:17:43.178Z,5.97
2023-05-05T05:20:46.542Z,7.30
2023-05-05T05:23:49.984Z,6.95
2023-05-05T05:26:53.048Z,6.22
2023-05-05T05:29:56.274Z,6.65
2023-05-05T05:33:01.729Z,6.50
2023-05-05T05:36:05.859Z,5.70
2023-05-05T05:39:08.850Z,7.75
2023-05-05T05:42:12.179Z,8.15
2023-05-05T05:45:15.822Z,8.48
2023-05-05T05:48:18.837Z,9.00
2023-05-05T05:51:22.199Z,8.25
2023-05-05T05:54:25.504Z,7.45
2023-05-05T05:57:28.382Z,12.40
2023-05-05T06:00:32.310Z,8.65
2023-05-05T06:03:41.351Z,10.60
2023-05-05T06:06:44.727Z,11.35
2023-05-05T06:09:56.978Z,8.43
2023-05-05T06:13:00.146Z,10.63
2023-05-05T06:16:03.695Z,11.15
2023-05-05T06:19:10.747Z,8.93
2023-05-05T06:22:14.385Z,9.68
2023-05-05T06:25:18.383Z,11.88
2023-05-05T06:28:27.005Z,9.70
2023-05-05T06:31:30.522Z,9.50
2023-05-05T06:34:33.709Z,9.50
2023-05-05T06:37:39.796Z,8.55
2023-05-05T06:40:43.625Z,8.10
2023-05-05T06:43:49.720Z,9.00
2023-05-05T06:46:54.504Z,12.52
2023-05-05T06:49:57.422Z,8.27
2023-05-05T06:53:00.215Z,9.15
2023-05-05T06:56:04.218Z,9.48
2023-05-05T06:59:07.008Z,9.20
2023-05-05T07:02:09.982Z,9.55
2023-05-05T07:05:16.769Z,8.47
2023-05-05T07:08:19.669Z,9.10
2023-05-05T07:11:28.747Z,11.68
2023-05-05T07:14:34.780Z,9.77
2023-05-05T07:17:42.021Z,13.57
2023-05-05T07:20:47.454Z,11.33
2023-05-05T07:23:51.221Z,10.40
2023-05-05T07:27:00.066Z,9.85
2023-05-05T07:30:11.156Z,9.98
2023-05-05T07:33:15.939Z,9.55
2023-05-05T07:36:18.958Z,7.70
2023-05-05T07:39:21.749Z,13.18
2023-05-05T07:42:27.536Z,11.50
2023-05-05T07:45:31.618Z,11.80
2023-05-05T07:48:35.163Z,9.50
2023-05-05T07:51:38.150Z,11.17
2023-05-05T07:54:41.351Z,10.90
2023-05-05T07:57:43.995Z,11.82
2023-05-05T08:00:50.682Z,10.15
2023-05-05T08:03:53.954Z,11.63
2023-05-05T08:06:57.115Z,9.73
2023-05-05T08:09:59.807Z,9.82
2023-05-05T08:13:03.049Z,10.68
2023-05-05T08:16:06.299Z,9.98
2023-05-05T08:19:21.152Z,11.65
2023-05-05T08:22:35.249Z,9.77
2023-05-05T08:25:39.648Z,12.65
2023-05-05T08:28:45.130Z,15.10
2023-05-05T08:31:48.180Z,10.63
2023-05-05T08:34:51.985Z,9.35
2023-05-05T08:37:56.063Z,9.80
2023-05-05T08:41:01.891Z,10.52
2023-05-05T08:44:09.758Z,12.43
2023-05-05T08:47:24.295Z,9.68
2023-05-05T08:50:29.159Z,10.10
2023-05-05T08:53:56.030Z,12.93
2023-05-05T08:57:02.037Z,12.98
2023-05-05T09:00:09.910Z,12.55
2023-05-05T09:03:13.275Z,15.55
2023-05-05T09:06:17.465Z,14.35
2023-05-05T09:09:22.286Z,12.80
2023-05-05T09:12:25.700Z,11.57
2023-05-05T09:15:28.546Z,13.02
2023-05-05T09:18:31.404Z,12.88
2023-05-05T09:21:34.202Z,12.60
2023-05-05T09:24:37.092Z,15.63
2023-05-05T09:27:43.098Z,11.43
2023-05-05T09:30:47.008Z,13.57
2023-05-05T09:33:49.925Z,14.30
2023-05-05T09:36:55.061Z,12.93
2023-05-05T09:40:04.098Z,15.77
2023-05-05T09:43:12.184Z,15.18
2023-05-05T09:46:15.066Z,9.48
2023-05-05T09:49:23.608Z,14.45
2023-05-05T09:52:48.877Z,11.30
2023-05-05T09:55:59.325Z,9.80
2023-05-05T09:59:13.144Z,11.32
2023-05-05T10:02:16.317Z,12.85
2023-05-05T10:05:20.091Z,11.77
2023-05-05T10:08:34.384Z,10.77
2023-05-05T10:11:37.230Z,13.67
2023-05-05T10:14:42.972Z,12.80
2023-05-05T10:21:04.331Z,13.35
2023-05-05T10:24:23.681Z,12.82
2023-05-05T10:27:29.412Z,12.37
2023-05-05T10:30:43.529Z,10.95
2023-05-05T10:33:58.946Z,13.50
2023-05-05T10:37:01.923Z,13.43
2023-05-05T10:40:08.002Z,12.30
2023-05-05T10:43:11.178Z,11.37
2023-05-05T10:46:17.061Z,13.18
2023-05-05T10:49:46.857Z,10.73
2023-05-05T10:53:20.856Z,15.35
2023-05-05T10:56:30.348Z,12.02
2023-05-05T10:59:37.225Z,11.10
2023-05-05T11:02:53.317Z,11.02
2023-05-05T11:06:06.989Z,14.10
2023-05-05T11:09:51.645Z,13.45
2023-05-05T11:13:16.585Z,10.55
2023-05-05T11:16:51.717Z,13.00
2023-05-05T11:19:55.350Z,10.02
2023-05-05T11:23:07.005Z,11.43
2023-05-05T11:26:10.548Z,13.50
2023-05-05T11:29:13.171Z,10.82
2023-05-05T11:32:16.132Z,10.80
2023-05-05T11:35:19.560Z,12.05
2023-05-05T11:38:37.392Z,10.85
2023-05-05T11:42:28.120Z,14.20
2023-05-05T11:45:31.173Z,11.35
2023-05-05T11:48:46.387Z,10.67
2023-05-05T11:52:06.188Z,12.63
2023-05-05T11:55:09.358Z,10.82
2023-05-05T11:58:20.218Z,12.18
2023-05-05T12:01:23.202Z,10.20
2023-05-05T12:04:26.268Z,12.27
2023-05-05T12:07:31.452Z,12.50
2023-05-05T12:10:34.058Z,12.65
2023-05-05T12:13:37.274Z,13.43
2023-05-05T12:16:41.371Z,12.30
2023-05-05T12:19:55.136Z,14.47
2023-05-05T12:23:05.019Z,13.85
2023-05-05T12:26:08.149Z,16.67
2023-05-05T12:29:11.112Z,15.57
2023-05-05T12:32:31.131Z,21.80
2023-05-05T12:35:34.790Z,22.20
2023-05-05T12:38:38.105Z,21.90
2023-05-05T12:41:41.241Z,16.90
2023-05-05T12:44:45.048Z,18.83
2023-05-05T12:47:47.729Z,16.88
2023-05-05T12:50:50.471Z,14.47
2023-05-05T12:54:03.295Z,19.02
2023-05-05T12:57:11.982Z,17.23
2023-05-05T13:00:17.762Z,20.00
2023-05-05T13:03:21.301Z,17.58
2023-05-05T13:06:26.307Z,23.53
2023-05-05T13:09:34.096Z,22.10
2023-05-05T13:12:37.396Z,73.75
2023-05-05T13:15:40.052Z,42.03
2023-05-05T13:18:48.714Z,44.63
2023-05-05T13:21:58.635Z,25.13
2023-05-05T13:25:01.436Z,28.42
2023-05-05T13:28:05.912Z,27.63
2023-05-05T13:31:09.046Z,27.75
2023-05-05T13:34:12.187Z,33.85
2023-05-05T13:37:14.954Z,22.17
2023-05-05T13:40:18.952Z,21.60
2023-05-05T13:43:21.796Z,27.48
2023-05-05T13:46:24.592Z,24.65
2023-05-05T13:49:27.243Z,25.40
2023-05-05T13:52:32.107Z,28.70
2023-05-05T13:55:36.664Z,25.17
2023-05-05T13:58:39.280Z,22.17
2023-05-05T14:01:42.199Z,23.70
2023-05-05T14:04:44.975Z,29.25
2023-05-05T14:07:47.908Z,22.37
2023-05-05T14:10:52.072Z,24.27
2023-05-05T14:13:55.237Z,27.20
2023-05-05T14:16:57.994Z,20.13
2023-05-05T14:20:00.731Z,20.30
2023-05-05T14:23:03.482Z,20.73
2023-05-05T14:26:06.062Z,22.02
2023-05-05T14:29:19.297Z,19.30
2023-05-05T14:32:23.170Z,28.27
2023-05-05T14:35:25.871Z,25.70
2023-05-05T14:38:28.422Z,20.07
2023-05-05T14:41:31.220Z,21.65
2023-05-05T14:44:33.952Z,23.10
2023-05-05T14:47:36.581Z,22.27
2023-05-05T14:50:40.828Z,28.63
2023-05-05T14:53:43.589Z,20.90
2023-05-05T14:56:46.395Z,17.00
2023-05-05T14:59:52.106Z,23.65
2023-05-05T15:02:54.850Z,20.77
2023-05-05T15:05:57.918Z,17.63
2023-05-05T15:09:00.551Z,22.87
2023-05-05T15:12:03.272Z,21.13
2023-05-05T15:15:08.777Z,23.52
2023-05-05T15:18:12.211Z,14.48
2023-05-05T15:21:14.817Z,20.27
2023-05-05T15:24:17.694Z,18.67
2023-05-05T15:27:20.319Z,16.17
2023-05-05T15:30:23.021Z,19.35
2023-05-05T15:33:26.188Z,19.42
2023-05-05T15:36:28.837Z,18.70
2023-05-05T15:39:31.402Z,19.20
2023-05-05T15:42:34.602Z,11.60
2023-05-05T15:45:39.550Z,20.33
2023-05-05T15:48:42.175Z,17.40
2023-05-05T15:51:45.016Z,15.02
2023-05-05T15:54:47.715Z,15.23
2023-05-05T15:57:50.239Z,16.25
2023-05-05T16:00:52.950Z,13.80
2023-05-05T16:03:55.815Z,15.00
2023-05-05T16:06:59.282Z,15.30
2023-05-05T16:10:02.194Z,14.23
2023-05-05T16:13:04.860Z,16.25
2023-05-05T16:16:07.519Z,15.93
2023-05-05T16:19:10.115Z,17.75
2023-05-05T16:22:13.344Z,14.80
2023-05-05T16:25:18.648Z,10.60
2023-05-05T16:28:21.440Z,16.98
2023-05-05T16:31:24.057Z,15.52
2023-05-05T16:34:27.059Z,13.00
2023-05-05T16:37:29.621Z,15.07
2023-05-05T16:40:32.400Z,14.60
2023-05-05T16:43:37.289Z,19.55
2023-05-05T16:46:40.224Z,16.25
2023-05-05T16:49:42.828Z,13.20
2023-05-05T16:52:45.604Z,14.48
2023-05-05T16:55:51.334Z,14.63
2023-05-05T16:58:53.916Z,12.80
2023-05-05T17:01:57.318Z,13.63
2023-05-05T17:05:00.012Z,11.93
2023-05-05T17:08:03.234Z,13.98
2023-05-05T17:11:06.011Z,11.10
2023-05-05T17:14:09.415Z,13.60
2023-05-05T17:17:12.386Z,16.80
2023-05-05T17:20:14.987Z,15.70
2023-05-05T17:23:17.724Z,13.05
2023-05-05T17:26:20.485Z,13.33
2023-05-05T17:29:23.443Z,17.33
2023-05-05T17:32:26.090Z,13.88
2023-05-05T17:35:29.810Z,14.35
2023-05-05T17:38:32.440Z,13.15
2023-05-05T17:41:35.209Z,14.63
2023-05-05T17:44:37.889Z,13.98
2023-05-05T17:47:40.499Z,16.15
2023-05-05T17:50:43.614Z,15.15
2023-05-05T17:53:46.420Z,15.73
2023-05-05T17:56:49.012Z,11.93
2023-05-05T17:59:53.530Z,13.02
2023-05-05T18:02:56.304Z,14.93
2023-05-05T18:05:58.914Z,16.33
2023-05-05T18:09:01.677Z,17.75
2023-05-05T18:12:04.684Z,15.50
2023-05-05T18:15:07.891Z,16.77
2023-05-05T18:18:10.809Z,16.75
2023-05-05T18:21:14.244Z,14.10
2023-05-05T18:24:20.375Z,12.48
2023-05-05T18:27:23.520Z,13.40
2023-05-05T18:30:26.154Z,13.25
2023-05-05T18:33:28.763Z,15.38
2023-05-05T18:36:31.575Z,15.57
2023-05-05T18:39:34.280Z,14.50
2023-05-05T18:42:37.176Z,15.77
2023-05-05T18:45:40.000Z,12.82
2023-05-05T18:48:42.920Z,13.38
2023-05-05T18:51:45.615Z,14.88
2023-05-05T18:54:48.295Z,16.58
2023-05-05T18:57:50.934Z,15.57
2023-05-05T19:00:54.030Z,13.98
2023-05-05T19:03:56.851Z,13.77
2023-05-05T19:06:59.910Z,14.27
2023-05-05T19:10:04.649Z,13.90
2023-05-05T19:13:08.252Z,12.87
2023-05-05T19:16:11.977Z,13.10
2023-05-05T19:19:14.942Z,12.73
2023-05-05T19:22:18.322Z,12.20
2023-05-05T19:25:21.166Z,12.02
2023-05-05T19:28:23.859Z,13.37
2023-05-05T19:31:27.856Z,12.82
2023-05-05T19:34:30.845Z,15.02
2023-05-05T19:37:34.020Z,13.55
2023-05-05T19:40:38.290Z,13.52
2023-05-05T19:43:40.888Z,12.07
2023-05-05T19:46:43.513Z,12.30
2023-05-05T19:49:46.706Z,13.50
2023-05-05T19:52:49.388Z,11.82
2023-05-05T19:55:52.272Z,12.80
2023-05-05T19:59:00.567Z,12.70
2023-05-05T20:02:03.432Z,16.45
2023-05-05T20:05:06.616Z,14.90
2023-05-05T20:08:09.221Z,15.40
2023-05-05T20:11:12.269Z,13.32
2023-05-05T20:14:14.926Z,12.17
2023-05-05T20:17:20.274Z,15.30
2023-05-05T20:20:23.070Z,14.70
2023-05-05T20:23:26.606Z,13.48
2023-05-05T20:26:29.425Z,14.45
2023-05-05T20:29:32.081Z,14.73
2023-05-05T20:32:34.604Z,14.60
2023-05-05T20:35:37.174Z,16.75
2023-05-05T20:38:39.880Z,15.27
2023-05-05T20:41:42.741Z,14.77
2023-05-05T20:44:46.194Z,15.33
2023-05-05T20:47:49.061Z,14.20
2023-05-05T20:50:52.253Z,14.65
2023-05-05T20:53:54.955Z,14.88
2023-05-05T20:56:58.258Z,14.38
2023-05-05T21:00:00.852Z,15.00
2023-05-05T21:03:04.416Z,15.35
2023-05-05T21:06:07.248Z,15.80
2023-05-05T21:09:09.896Z,17.00
2023-05-05T21:12:12.489Z,19.40
2023-05-05T21:15:16.783Z,17.20
2023-05-05T21:18:19.633Z,16.42
2023-05-05T21:21:23.913Z,15.48
2023-05-05T21:24:28.133Z,16.48
2023-05-05T21:27:30.777Z,17.95
2023-05-05T21:30:33.382Z,15.87
2023-05-05T21:33:36.196Z,15.55
2023-05-05T21:36:38.964Z,16.65
2023-05-05T21:39:41.785Z,19.50
2023-05-05T21:42:44.406Z,15.15
2023-05-05T21:45:47.129Z,21.07
2023-05-05T21:48:49.719Z,24.38
2023-05-05T21:51:52.300Z,23.95
2023-05-05T21:54:54.820Z,23.30
2023-05-05T21:57:57.390Z,23.65
2023-05-05T22:01:00.282Z,23.17
2023-05-05T22:04:03.009Z,24.58
2023-05-05T22:07:05.957Z,29.23
2023-05-05T22:10:09.291Z,29.08
2023-05-05T22:13:12.354Z,32.15
2023-05-05T22:16:17.669Z,35.13
2023-05-05T22:19:20.361Z,34.25
2023-05-05T22:22:23.052Z,34.53
2023-05-05T22:25:25.672Z,32.22
2023-05-05T22:28:28.351Z,31.25
2023-05-05T22:31:31.121Z,30.37
2023-05-05T22:34:35.261Z,31.73
2023-05-05T22:37:37.809Z,36.58
2023-05-05T22:40:40.882Z,33.53
2023-05-05T22:43:43.573Z,33.72
2023-05-05T22:46:46.323Z,33.40
2023-05-05T22:49:49.077Z,32.72
2023-05-05T22:52:51.719Z,30.88
2023-05-05T22:55:54.311Z,33.13
2023-05-05T22:58:57.240Z,31.83
2023-05-05T23:02:00.258Z,31.73
2023-05-05T23:05:03.128Z,27.80
2023-05-05T23:08:06.122Z,30.38
2023-05-05T23:11:08.652Z,31.10
2023-05-05T23:14:11.210Z,29.90
2023-05-05T23:17:13.971Z,30.73
2023-05-05T23:20:16.654Z,32.88
2023-05-05T23:23:19.233Z,34.03
2023-05-05T23:26:21.985Z,28.90
2023-05-05T23:29:24.656Z,28.88
2023-05-05T23:32:27.313Z,29.00
2023-05-05T23:35:30.584Z,27.58
2023-05-05T23:38:33.230Z,26.42
2023-05-05T23:41:36.257Z,31.30
2023-05-05T23:44:38.816Z,27.23
2023-05-05T23:47:41.634Z,27.37
2023-05-05T23:50:44.355Z,28.00
2023-05-05T23:53:47.087Z,27.90
2023-05-05T23:56:49.773Z,28.58
2023-05-05T23:59:52.311Z,28.55
